sensor_id;sensor_type;location;lat;lon;timestamp;P1;durP1;ratioP1;P2;durP2;ratioP2
10134;SDS011;5107;48.850;8.924;2023-01-30T00:00:10;19.10;;;9.90;;
10134;SDS011;5107;48.850;8.924;2023-01-30T00:02:39;17.60;;;9.93;;
10134;SDS011;5107;48.850;8.924;2023-01-30T00:05:06;17.83;;;10.10;;
10134;SDS011;5107;48.850;8.924;2023-01-30T00:07:34;19.03;;;10.10;;
10134;SDS011;5107;48.850;8.924;2023-01-30T00:10:01;17.67;;;9.07;;
10134;SDS011;5107;48.850;8.924;2023-01-30T00:12:29;18.80;;;10.33;;
10134;SDS011;5107;48.850;8.924;2023-01-30T00:14:56;18.37;;;9.73;;
10134;SDS011;5107;48.850;8.924;2023-01-30T00:17:23;16.93;;;9.37;;
10134;SDS011;5107;48.850;8.924;2023-01-30T00:19:51;16.60;;;9.27;;
10134;SDS011;5107;48.850;8.924;2023-01-30T00:22:18;16.27;;;9.53;;
10134;SDS011;5107;48.850;8.924;2023-01-30T00:24:45;18.93;;;9.80;;
10134;SDS011;5107;48.850;8.924;2023-01-30T00:27:12;18.10;;;9.87;;
10134;SDS011;5107;48.850;8.924;2023-01-30T00:29:39;18.93;;;9.60;;
10134;SDS011;5107;48.850;8.924;2023-01-30T00:32:06;16.73;;;9.23;;
10134;SDS011;5107;48.850;8.924;2023-01-30T00:34:33;16.67;;;9.43;;
10134;SDS011;5107;48.850;8.924;2023-01-30T00:37:02;16.40;;;8.50;;
10134;SDS011;5107;48.850;8.924;2023-01-30T00:39:29;18.07;;;9.50;;
10134;SDS011;5107;48.850;8.924;2023-01-30T00:41:56;16.50;;;9.20;;
10134;SDS011;5107;48.850;8.924;2023-01-30T00:44:43;15.50;;;9.23;;
10134;SDS011;5107;48.850;8.924;2023-01-30T00:47:28;16.93;;;8.90;;
10134;SDS011;5107;48.850;8.924;2023-01-30T00:49:55;16.30;;;8.83;;
10134;SDS011;5107;48.850;8.924;2023-01-30T00:52:23;14.30;;;8.43;;
10134;SDS011;5107;48.850;8.924;2023-01-30T00:54:50;17.23;;;8.70;;
10134;SDS011;5107;48.850;8.924;2023-01-30T00:57:17;16.90;;;9.00;;
10134;SDS011;5107;48.850;8.924;2023-01-30T00:59:44;14.40;;;8.67;;
10134;SDS011;5107;48.850;8.924;2023-01-30T01:02:11;14.23;;;8.33;;
10134;SDS011;5107;48.850;8.924;2023-01-30T01:04:38;19.17;;;8.57;;
10134;SDS011;5107;48.850;8.924;2023-01-30T01:07:09;16.07;;;7.63;;
10134;SDS011;5107;48.850;8.924;2023-01-30T01:09:39;12.93;;;7.40;;
10134;SDS011;5107;48.850;8.924;2023-01-30T01:12:06;16.03;;;8.27;;
10134;SDS011;5107;48.850;8.924;2023-01-30T01:14:34;17.07;;;9.83;;
10134;SDS011;5107;48.850;8.924;2023-01-30T01:17:01;15.50;;;8.80;;
10134;SDS011;5107;48.850;8.924;2023-01-30T01:19:28;16.13;;;8.27;;
10134;SDS011;5107;48.850;8.924;2023-01-30T01:21:55;17.03;;;8.67;;
10134;SDS011;5107;48.850;8.924;2023-01-30T01:24:22;17.27;;;8.30;;
10134;SDS011;5107;48.850;8.924;2023-01-30T01:26:51;14.67;;;8.43;;
10134;SDS011;5107;48.850;8.924;2023-01-30T01:29:18;17.83;;;9.07;;
10134;SDS011;5107;48.850;8.924;2023-01-30T01:31:46;14.73;;;8.23;;
10134;SDS011;5107;48.850;8.924;2023-01-30T01:34:14;12.13;;;7.83;;
10134;SDS011;5107;48.850;8.924;2023-01-30T01:36:42;15.60;;;8.80;;
10134;SDS011;5107;48.850;8.924;2023-01-30T01:39:09;17.90;;;9.57;;
10134;SDS011;5107;48.850;8.924;2023-01-30T01:41:36;17.87;;;8.97;;
10134;SDS011;5107;48.850;8.924;2023-01-30T01:44:05;16.97;;;9.30;;
10134;SDS011;5107;48.850;8.924;2023-01-30T01:46:34;16.50;;;9.30;;
10134;SDS011;5107;48.850;8.924;2023-01-30T01:49:04;17.13;;;9.87;;
10134;SDS011;5107;48.850;8.924;2023-01-30T01:51:39;15.73;;;8.93;;
10134;SDS011;5107;48.850;8.924;2023-01-30T01:54:15;16.97;;;8.80;;
10134;SDS011;5107;48.850;8.924;2023-01-30T01:56:48;17.10;;;8.93;;
10134;SDS011;5107;48.850;8.924;2023-01-30T01:59:18;16.57;;;8.80;;
10134;SDS011;5107;48.850;8.924;2023-01-30T02:01:52;17.67;;;9.20;;
10134;SDS011;5107;48.850;8.924;2023-01-30T02:04:26;20.83;;;9.73;;
10134;SDS011;5107;48.850;8.924;2023-01-30T02:07:12;22.20;;;10.17;;
10134;SDS011;5107;48.850;8.924;2023-01-30T02:09:43;20.53;;;10.27;;
10134;SDS011;5107;48.850;8.924;2023-01-30T02:12:10;20.13;;;10.70;;
10134;SDS011;5107;48.850;8.924;2023-01-30T02:14:41;21.47;;;10.90;;
10134;SDS011;5107;48.850;8.924;2023-01-30T02:17:12;24.63;;;12.63;;
10134;SDS011;5107;48.850;8.924;2023-01-30T02:19:41;22.73;;;12.30;;
10134;SDS011;5107;48.850;8.924;2023-01-30T02:22:21;24.63;;;11.97;;
10134;SDS011;5107;48.850;8.924;2023-01-30T02:25:19;22.60;;;11.43;;
10134;SDS011;5107;48.850;8.924;2023-01-30T02:28:29;20.63;;;10.70;;
10134;SDS011;5107;48.850;8.924;2023-01-30T02:31:47;21.73;;;11.43;;
10134;SDS011;5107;48.850;8.924;2023-01-30T02:34:26;21.87;;;12.30;;
10134;SDS011;5107;48.850;8.924;2023-01-30T02:37:12;22.33;;;11.13;;
10134;SDS011;5107;48.850;8.924;2023-01-30T02:39:55;22.97;;;11.60;;
10134;SDS011;5107;48.850;8.924;2023-01-30T02:42:43;23.87;;;11.57;;
10134;SDS011;5107;48.850;8.924;2023-01-30T02:45:22;22.73;;;12.30;;
10134;SDS011;5107;48.850;8.924;2023-01-30T02:47:59;25.40;;;11.87;;
10134;SDS011;5107;48.850;8.924;2023-01-30T02:50:31;20.77;;;12.33;;
10134;SDS011;5107;48.850;8.924;2023-01-30T02:53:04;21.77;;;11.93;;
10134;SDS011;5107;48.850;8.924;2023-01-30T02:55:34;21.17;;;11.13;;
10134;SDS011;5107;48.850;8.924;2023-01-30T02:58:05;28.17;;;12.40;;
10134;SDS011;5107;48.850;8.924;2023-01-30T03:00:46;25.53;;;12.90;;
10134;SDS011;5107;48.850;8.924;2023-01-30T03:03:39;22.57;;;12.47;;
10134;SDS011;5107;48.850;8.924;2023-01-30T03:06:32;21.33;;;10.83;;
10134;SDS011;5107;48.850;8.924;2023-01-30T03:09:19;22.13;;;10.77;;
10134;SDS011;5107;48.850;8.924;2023-01-30T03:11:57;19.37;;;10.77;;
10134;SDS011;5107;48.850;8.924;2023-01-30T03:14:35;19.23;;;10.67;;
10134;SDS011;5107;48.850;8.924;2023-01-30T03:17:11;18.57;;;9.80;;
10134;SDS011;5107;48.850;8.924;2023-01-30T03:19:41;16.00;;;9.87;;
10134;SDS011;5107;48.850;8.924;2023-01-30T03:22:09;17.27;;;9.40;;
10134;SDS011;5107;48.850;8.924;2023-01-30T03:24:36;17.57;;;8.87;;
10134;SDS011;5107;48.850;8.924;2023-01-30T03:27:04;14.20;;;8.37;;
10134;SDS011;5107;48.850;8.924;2023-01-30T03:29:36;19.07;;;9.63;;
10134;SDS011;5107;48.850;8.924;2023-01-30T03:32:04;23.03;;;11.37;;
10134;SDS011;5107;48.850;8.924;2023-01-30T03:34:32;13.23;;;8.97;;
10134;SDS011;5107;48.850;8.924;2023-01-30T03:37:00;16.20;;;8.77;;
10134;SDS011;5107;48.850;8.924;2023-01-30T03:39:32;14.03;;;7.70;;
10134;SDS011;5107;48.850;8.924;2023-01-30T03:41:59;14.57;;;9.60;;
10134;SDS011;5107;48.850;8.924;2023-01-30T03:44:27;17.60;;;9.67;;
10134;SDS011;5107;48.850;8.924;2023-01-30T03:46:54;15.53;;;8.23;;
10134;SDS011;5107;48.850;8.924;2023-01-30T03:49:21;14.83;;;8.77;;
10134;SDS011;5107;48.850;8.924;2023-01-30T03:51:48;16.70;;;9.53;;
10134;SDS011;5107;48.850;8.924;2023-01-30T03:54:17;18.57;;;9.23;;
10134;SDS011;5107;48.850;8.924;2023-01-30T03:56:44;13.03;;;7.90;;
10134;SDS011;5107;48.850;8.924;2023-01-30T03:59:11;16.47;;;8.50;;
10134;SDS011;5107;48.850;8.924;2023-01-30T04:01:46;12.63;;;7.97;;
10134;SDS011;5107;48.850;8.924;2023-01-30T04:04:13;14.50;;;8.67;;
10134;SDS011;5107;48.850;8.924;2023-01-30T04:06:41;16.20;;;8.03;;
10134;SDS011;5107;48.850;8.924;2023-01-30T04:09:08;16.67;;;9.87;;
10134;SDS011;5107;48.850;8.924;2023-01-30T04:11:42;14.80;;;8.43;;
10134;SDS011;5107;48.850;8.924;2023-01-30T04:14:09;17.77;;;8.97;;
10134;SDS011;5107;48.850;8.924;2023-01-30T04:16:48;15.40;;;8.00;;
10134;SDS011;5107;48.850;8.924;2023-01-30T04:19:53;13.00;;;7.20;;
10134;SDS011;5107;48.850;8.924;2023-01-30T04:22:20;14.23;;;8.53;;
10134;SDS011;5107;48.850;8.924;2023-01-30T04:24:47;14.43;;;8.30;;
10134;SDS011;5107;48.850;8.924;2023-01-30T04:27:16;12.70;;;7.17;;
10134;SDS011;5107;48.850;8.924;2023-01-30T04:30:01;14.33;;;7.70;;
10134;SDS011;5107;48.850;8.924;2023-01-30T04:32:29;13.37;;;8.00;;
10134;SDS011;5107;48.850;8.924;2023-01-30T04:34:57;11.40;;;7.13;;
10134;SDS011;5107;48.850;8.924;2023-01-30T04:37:24;14.47;;;7.77;;
10134;SDS011;5107;48.850;8.924;2023-01-30T04:39:51;13.30;;;7.70;;
10134;SDS011;5107;48.850;8.924;2023-01-30T04:42:20;11.47;;;7.57;;
10134;SDS011;5107;48.850;8.924;2023-01-30T04:45:07;11.70;;;7.50;;
10134;SDS011;5107;48.850;8.924;2023-01-30T04:47:35;13.63;;;7.83;;
10134;SDS011;5107;48.850;8.924;2023-01-30T04:50:03;12.67;;;7.30;;
10134;SDS011;5107;48.850;8.924;2023-01-30T04:52:32;12.53;;;7.27;;
10134;SDS011;5107;48.850;8.924;2023-01-30T04:54:59;12.73;;;7.43;;
10134;SDS011;5107;48.850;8.924;2023-01-30T04:57:28;12.63;;;7.60;;
10134;SDS011;5107;48.850;8.924;2023-01-30T04:59:55;14.03;;;7.57;;
10134;SDS011;5107;48.850;8.924;2023-01-30T05:02:22;12.37;;;7.40;;
10134;SDS011;5107;48.850;8.924;2023-01-30T05:04:49;11.93;;;6.97;;
10134;SDS011;5107;48.850;8.924;2023-01-30T05:07:16;13.80;;;7.30;;
10134;SDS011;5107;48.850;8.924;2023-01-30T05:09:43;11.30;;;6.73;;
10134;SDS011;5107;48.850;8.924;2023-01-30T05:12:10;12.53;;;7.60;;
10134;SDS011;5107;48.850;8.924;2023-01-30T05:14:38;14.67;;;8.10;;
10134;SDS011;5107;48.850;8.924;2023-01-30T05:17:06;11.87;;;7.37;;
10134;SDS011;5107;48.850;8.924;2023-01-30T05:19:33;12.13;;;7.10;;
10134;SDS011;5107;48.850;8.924;2023-01-30T05:22:00;12.47;;;7.20;;
10134;SDS011;5107;48.850;8.924;2023-01-30T05:24:27;11.50;;;7.07;;
10134;SDS011;5107;48.850;8.924;2023-01-30T05:26:54;12.43;;;6.83;;
10134;SDS011;5107;48.850;8.924;2023-01-30T05:29:21;12.10;;;7.13;;
10134;SDS011;5107;48.850;8.924;2023-01-30T05:31:50;12.10;;;7.43;;
10134;SDS011;5107;48.850;8.924;2023-01-30T05:34:17;12.23;;;7.13;;
10134;SDS011;5107;48.850;8.924;2023-01-30T05:36:44;11.13;;;6.57;;
10134;SDS011;5107;48.850;8.924;2023-01-30T05:39:11;13.37;;;7.00;;
10134;SDS011;5107;48.850;8.924;2023-01-30T05:41:38;12.23;;;7.03;;
10134;SDS011;5107;48.850;8.924;2023-01-30T05:44:05;12.97;;;7.80;;
10134;SDS011;5107;48.850;8.924;2023-01-30T05:46:32;11.80;;;6.63;;
10134;SDS011;5107;48.850;8.924;2023-01-30T05:49:01;12.67;;;7.07;;
10134;SDS011;5107;48.850;8.924;2023-01-30T05:51:28;12.53;;;7.40;;
10134;SDS011;5107;48.850;8.924;2023-01-30T05:53:56;11.57;;;6.90;;
10134;SDS011;5107;48.850;8.924;2023-01-30T05:56:23;10.37;;;6.50;;
10134;SDS011;5107;48.850;8.924;2023-01-30T05:58:50;13.47;;;6.77;;
10134;SDS011;5107;48.850;8.924;2023-01-30T06:01:18;9.97;;;6.00;;
10134;SDS011;5107;48.850;8.924;2023-01-30T06:03:46;11.03;;;6.97;;
10134;SDS011;5107;48.850;8.924;2023-01-30T06:06:15;11.63;;;7.10;;
10134;SDS011;5107;48.850;8.924;2023-01-30T06:08:43;11.23;;;6.83;;
10134;SDS011;5107;48.850;8.924;2023-01-30T06:11:11;10.67;;;6.80;;
10134;SDS011;5107;48.850;8.924;2023-01-30T06:13:40;12.57;;;6.87;;
10134;SDS011;5107;48.850;8.924;2023-01-30T06:16:08;16.20;;;8.80;;
10134;SDS011;5107;48.850;8.924;2023-01-30T06:18:37;10.83;;;7.00;;
10134;SDS011;5107;48.850;8.924;2023-01-30T06:21:05;14.23;;;8.13;;
10134;SDS011;5107;48.850;8.924;2023-01-30T06:23:34;15.07;;;7.90;;
10134;SDS011;5107;48.850;8.924;2023-01-30T06:26:03;11.17;;;6.20;;
10134;SDS011;5107;48.850;8.924;2023-01-30T06:28:30;10.03;;;6.00;;
10134;SDS011;5107;48.850;8.924;2023-01-30T06:30:58;11.27;;;6.50;;
10134;SDS011;5107;48.850;8.924;2023-01-30T06:33:25;10.60;;;6.87;;
10134;SDS011;5107;48.850;8.924;2023-01-30T06:35:52;10.20;;;6.20;;
10134;SDS011;5107;48.850;8.924;2023-01-30T06:38:20;10.07;;;6.13;;
10134;SDS011;5107;48.850;8.924;2023-01-30T06:40:49;10.37;;;7.33;;
10134;SDS011;5107;48.850;8.924;2023-01-30T06:43:16;11.63;;;7.03;;
10134;SDS011;5107;48.850;8.924;2023-01-30T06:45:43;12.60;;;7.07;;
10134;SDS011;5107;48.850;8.924;2023-01-30T06:48:10;10.27;;;6.47;;
10134;SDS011;5107;48.850;8.924;2023-01-30T06:50:37;13.97;;;8.57;;
10134;SDS011;5107;48.850;8.924;2023-01-30T06:53:05;14.17;;;7.80;;
10134;SDS011;5107;48.850;8.924;2023-01-30T06:55:34;11.23;;;7.03;;
10134;SDS011;5107;48.850;8.924;2023-01-30T06:58:04;10.43;;;5.93;;
10134;SDS011;5107;48.850;8.924;2023-01-30T07:00:34;9.40;;;6.13;;
10134;SDS011;5107;48.850;8.924;2023-01-30T07:03:03;11.20;;;7.07;;
10134;SDS011;5107;48.850;8.924;2023-01-30T07:05:31;12.17;;;6.57;;
10134;SDS011;5107;48.850;8.924;2023-01-30T07:07:58;10.97;;;6.67;;
10134;SDS011;5107;48.850;8.924;2023-01-30T07:10:25;8.67;;;5.60;;
10134;SDS011;5107;48.850;8.924;2023-01-30T07:12:53;10.73;;;6.93;;
10134;SDS011;5107;48.850;8.924;2023-01-30T07:15:21;11.20;;;6.43;;
10134;SDS011;5107;48.850;8.924;2023-01-30T07:17:48;37.47;;;17.33;;
10134;SDS011;5107;48.850;8.924;2023-01-30T07:20:15;17.47;;;9.70;;
10134;SDS011;5107;48.850;8.924;2023-01-30T07:22:47;18.40;;;10.20;;
10134;SDS011;5107;48.850;8.924;2023-01-30T07:25:15;19.73;;;10.57;;
10134;SDS011;5107;48.850;8.924;2023-01-30T07:27:43;12.13;;;7.77;;
10134;SDS011;5107;48.850;8.924;2023-01-30T07:30:16;16.90;;;9.83;;
10134;SDS011;5107;48.850;8.924;2023-01-30T07:32:45;11.03;;;6.30;;
10134;SDS011;5107;48.850;8.924;2023-01-30T07:35:15;10.97;;;6.73;;
10134;SDS011;5107;48.850;8.924;2023-01-30T07:37:43;13.40;;;7.17;;
10134;SDS011;5107;48.850;8.924;2023-01-30T07:40:12;9.93;;;5.67;;
10134;SDS011;5107;48.850;8.924;2023-01-30T07:42:39;12.13;;;6.20;;
10134;SDS011;5107;48.850;8.924;2023-01-30T07:45:07;9.57;;;6.30;;
10134;SDS011;5107;48.850;8.924;2023-01-30T07:47:35;9.30;;;6.03;;
10134;SDS011;5107;48.850;8.924;2023-01-30T07:50:04;8.87;;;5.90;;
10134;SDS011;5107;48.850;8.924;2023-01-30T07:52:32;10.23;;;7.07;;
10134;SDS011;5107;48.850;8.924;2023-01-30T07:54:59;9.60;;;5.37;;
10134;SDS011;5107;48.850;8.924;2023-01-30T07:57:27;8.83;;;5.77;;
10134;SDS011;5107;48.850;8.924;2023-01-30T07:59:55;8.17;;;5.13;;
10134;SDS011;5107;48.850;8.924;2023-01-30T08:02:22;8.13;;;4.83;;
10134;SDS011;5107;48.850;8.924;2023-01-30T08:04:49;11.20;;;6.07;;
10134;SDS011;5107;48.850;8.924;2023-01-30T08:07:17;10.83;;;5.80;;
10134;SDS011;5107;48.850;8.924;2023-01-30T08:09:44;7.80;;;4.83;;
10134;SDS011;5107;48.850;8.924;2023-01-30T08:12:12;7.67;;;5.23;;
10134;SDS011;5107;48.850;8.924;2023-01-30T08:14:39;8.43;;;5.47;;
10134;SDS011;5107;48.850;8.924;2023-01-30T08:17:06;9.13;;;5.13;;
10134;SDS011;5107;48.850;8.924;2023-01-30T08:19:33;7.53;;;5.00;;
10134;SDS011;5107;48.850;8.924;2023-01-30T08:22:00;9.60;;;5.30;;
10134;SDS011;5107;48.850;8.924;2023-01-30T08:24:28;9.90;;;5.33;;
10134;SDS011;5107;48.850;8.924;2023-01-30T08:26:55;9.37;;;4.87;;
10134;SDS011;5107;48.850;8.924;2023-01-30T08:29:24;8.73;;;5.20;;
10134;SDS011;5107;48.850;8.924;2023-01-30T08:31:55;8.43;;;5.07;;
10134;SDS011;5107;48.850;8.924;2023-01-30T08:34:22;9.97;;;5.50;;
10134;SDS011;5107;48.850;8.924;2023-01-30T08:36:50;7.63;;;4.67;;
10134;SDS011;5107;48.850;8.924;2023-01-30T08:39:17;8.03;;;5.20;;
10134;SDS011;5107;48.850;8.924;2023-01-30T08:41:46;7.20;;;4.57;;
10134;SDS011;5107;48.850;8.924;2023-01-30T08:44:13;4.53;;;3.30;;
10134;SDS011;5107;48.850;8.924;2023-01-30T08:46:40;3.97;;;3.10;;
10134;SDS011;5107;48.850;8.924;2023-01-30T08:49:07;4.50;;;2.97;;
10134;SDS011;5107;48.850;8.924;2023-01-30T08:51:35;5.37;;;3.23;;
10134;SDS011;5107;48.850;8.924;2023-01-30T08:54:03;4.83;;;2.13;;
10134;SDS011;5107;48.850;8.924;2023-01-30T08:56:31;3.97;;;2.60;;
10134;SDS011;5107;48.850;8.924;2023-01-30T08:59:00;2.67;;;2.30;;
10134;SDS011;5107;48.850;8.924;2023-01-30T09:01:27;3.50;;;2.53;;
10134;SDS011;5107;48.850;8.924;2023-01-30T09:03:54;3.60;;;2.97;;
10134;SDS011;5107;48.850;8.924;2023-01-30T09:06:21;4.97;;;3.43;;
10134;SDS011;5107;48.850;8.924;2023-01-30T09:08:49;7.27;;;3.70;;
10134;SDS011;5107;48.850;8.924;2023-01-30T09:11:16;5.43;;;3.53;;
10134;SDS011;5107;48.850;8.924;2023-01-30T09:13:43;5.33;;;3.73;;
10134;SDS011;5107;48.850;8.924;2023-01-30T09:16:11;3.00;;;2.17;;
10134;SDS011;5107;48.850;8.924;2023-01-30T09:18:39;1.93;;;1.73;;
10134;SDS011;5107;48.850;8.924;2023-01-30T09:21:07;2.40;;;2.00;;
10134;SDS011;5107;48.850;8.924;2023-01-30T09:23:36;2.47;;;2.00;;
10134;SDS011;5107;48.850;8.924;2023-01-30T09:26:04;2.93;;;2.07;;
10134;SDS011;5107;48.850;8.924;2023-01-30T09:28:32;2.83;;;2.17;;
10134;SDS011;5107;48.850;8.924;2023-01-30T09:31:00;3.63;;;2.47;;
10134;SDS011;5107;48.850;8.924;2023-01-30T09:33:29;4.93;;;2.47;;
10134;SDS011;5107;48.850;8.924;2023-01-30T09:35:56;3.83;;;2.67;;
10134;SDS011;5107;48.850;8.924;2023-01-30T09:38:24;2.43;;;2.03;;
10134;SDS011;5107;48.850;8.924;2023-01-30T09:40:53;3.23;;;2.37;;
10134;SDS011;5107;48.850;8.924;2023-01-30T09:44:05;3.30;;;2.50;;
10134;SDS011;5107;48.850;8.924;2023-01-30T09:46:49;3.13;;;2.00;;
10134;SDS011;5107;48.850;8.924;2023-01-30T09:49:28;3.83;;;2.10;;
10134;SDS011;5107;48.850;8.924;2023-01-30T09:52:13;2.97;;;2.13;;
10134;SDS011;5107;48.850;8.924;2023-01-30T09:54:51;1.60;;;1.40;;
10134;SDS011;5107;48.850;8.924;2023-01-30T09:57:27;1.57;;;1.47;;
10134;SDS011;5107;48.850;8.924;2023-01-30T09:59:56;1.33;;;1.23;;
10134;SDS011;5107;48.850;8.924;2023-01-30T10:02:40;1.20;;;1.10;;
10134;SDS011;5107;48.850;8.924;2023-01-30T10:05:16;1.13;;;0.87;;
10134;SDS011;5107;48.850;8.924;2023-01-30T10:07:54;0.80;;;0.80;;
10134;SDS011;5107;48.850;8.924;2023-01-30T10:11:00;0.60;;;0.60;;
10134;SDS011;5107;48.850;8.924;2023-01-30T10:13:42;0.80;;;0.80;;
10134;SDS011;5107;48.850;8.924;2023-01-30T10:16:23;1.73;;;0.97;;
10134;SDS011;5107;48.850;8.924;2023-01-30T10:19:01;0.53;;;0.53;;
10134;SDS011;5107;48.850;8.924;2023-01-30T10:21:51;0.93;;;0.83;;
10134;SDS011;5107;48.850;8.924;2023-01-30T10:24:30;1.10;;;1.00;;
10134;SDS011;5107;48.850;8.924;2023-01-30T10:27:12;0.60;;;0.60;;
10134;SDS011;5107;48.850;8.924;2023-01-30T10:29:43;0.70;;;0.70;;
10134;SDS011;5107;48.850;8.924;2023-01-30T10:32:16;0.70;;;0.70;;
10134;SDS011;5107;48.850;8.924;2023-01-30T10:34:50;1.13;;;1.03;;
10134;SDS011;5107;48.850;8.924;2023-01-30T10:37:25;1.20;;;0.90;;
10134;SDS011;5107;48.850;8.924;2023-01-30T10:39:58;1.63;;;1.00;;
10134;SDS011;5107;48.850;8.924;2023-01-30T10:42:34;0.80;;;0.80;;
10134;SDS011;5107;48.850;8.924;2023-01-30T10:45:09;0.60;;;0.60;;
10134;SDS011;5107;48.850;8.924;2023-01-30T10:47:46;0.83;;;0.67;;
10134;SDS011;5107;48.850;8.924;2023-01-30T10:50:26;0.70;;;0.70;;
10134;SDS011;5107;48.850;8.924;2023-01-30T10:53:12;0.77;;;0.77;;
10134;SDS011;5107;48.850;8.924;2023-01-30T10:55:50;0.80;;;0.80;;
10134;SDS011;5107;48.850;8.924;2023-01-30T10:58:23;0.60;;;0.60;;
10134;SDS011;5107;48.850;8.924;2023-01-30T11:01:01;0.73;;;0.70;;
10134;SDS011;5107;48.850;8.924;2023-01-30T11:03:34;0.77;;;0.77;;
10134;SDS011;5107;48.850;8.924;2023-01-30T11:06:06;0.50;;;0.50;;
10134;SDS011;5107;48.850;8.924;2023-01-30T11:08:42;0.67;;;0.60;;
10134;SDS011;5107;48.850;8.924;2023-01-30T11:11:20;2.53;;;0.80;;
10134;SDS011;5107;48.850;8.924;2023-01-30T11:13:59;0.50;;;0.50;;
10134;SDS011;5107;48.850;8.924;2023-01-30T11:16:29;1.63;;;1.10;;
10134;SDS011;5107;48.850;8.924;2023-01-30T11:18:57;0.70;;;0.70;;
10134;SDS011;5107;48.850;8.924;2023-01-30T11:21:27;0.90;;;0.80;;
10134;SDS011;5107;48.850;8.924;2023-01-30T11:23:57;0.70;;;0.63;;
10134;SDS011;5107;48.850;8.924;2023-01-30T11:26:33;0.70;;;0.70;;
10134;SDS011;5107;48.850;8.924;2023-01-30T11:29:13;0.50;;;0.50;;
10134;SDS011;5107;48.850;8.924;2023-01-30T11:31:49;0.60;;;0.60;;
10134;SDS011;5107;48.850;8.924;2023-01-30T11:34:18;0.60;;;0.60;;
10134;SDS011;5107;48.850;8.924;2023-01-30T11:36:47;0.43;;;0.43;;
10134;SDS011;5107;48.850;8.924;2023-01-30T11:39:22;0.60;;;0.60;;
10134;SDS011;5107;48.850;8.924;2023-01-30T11:41:58;0.70;;;0.70;;
10134;SDS011;5107;48.850;8.924;2023-01-30T11:44:29;0.50;;;0.50;;
10134;SDS011;5107;48.850;8.924;2023-01-30T11:47:00;0.67;;;0.67;;
10134;SDS011;5107;48.850;8.924;2023-01-30T11:49:32;0.60;;;0.60;;
10134;SDS011;5107;48.850;8.924;2023-01-30T11:52:04;0.70;;;0.70;;
10134;SDS011;5107;48.850;8.924;2023-01-30T11:54:33;0.60;;;0.60;;
10134;SDS011;5107;48.850;8.924;2023-01-30T11:57:05;0.73;;;0.60;;
10134;SDS011;5107;48.850;8.924;2023-01-30T11:59:39;0.40;;;0.40;;
10134;SDS011;5107;48.850;8.924;2023-01-30T12:02:13;0.50;;;0.50;;
10134;SDS011;5107;48.850;8.924;2023-01-30T12:04:45;0.67;;;0.67;;
10134;SDS011;5107;48.850;8.924;2023-01-30T12:07:20;0.60;;;0.60;;
10134;SDS011;5107;48.850;8.924;2023-01-30T12:09:51;0.70;;;0.60;;
10134;SDS011;5107;48.850;8.924;2023-01-30T12:12:30;0.47;;;0.47;;
10134;SDS011;5107;48.850;8.924;2023-01-30T12:15:04;0.53;;;0.53;;
10134;SDS011;5107;48.850;8.924;2023-01-30T12:17:43;0.77;;;0.77;;
10134;SDS011;5107;48.850;8.924;2023-01-30T12:20:16;0.60;;;0.60;;
10134;SDS011;5107;48.850;8.924;2023-01-30T12:22:58;0.60;;;0.60;;
10134;SDS011;5107;48.850;8.924;2023-01-30T12:25:40;0.83;;;0.63;;
10134;SDS011;5107;48.850;8.924;2023-01-30T12:28:14;1.03;;;0.70;;
10134;SDS011;5107;48.850;8.924;2023-01-30T12:30:48;0.60;;;0.60;;
10134;SDS011;5107;48.850;8.924;2023-01-30T12:33:19;0.50;;;0.50;;
10134;SDS011;5107;48.850;8.924;2023-01-30T12:35:52;0.67;;;0.60;;
10134;SDS011;5107;48.850;8.924;2023-01-30T12:38:37;0.60;;;0.60;;
10134;SDS011;5107;48.850;8.924;2023-01-30T12:41:27;0.60;;;0.60;;
10134;SDS011;5107;48.850;8.924;2023-01-30T12:44:12;2.23;;;1.47;;
10134;SDS011;5107;48.850;8.924;2023-01-30T12:46:55;0.70;;;0.70;;
10134;SDS011;5107;48.850;8.924;2023-01-30T12:49:45;0.53;;;0.53;;
10134;SDS011;5107;48.850;8.924;2023-01-30T12:52:32;0.43;;;0.43;;
10134;SDS011;5107;48.850;8.924;2023-01-30T12:55:23;0.80;;;0.73;;
10134;SDS011;5107;48.850;8.924;2023-01-30T12:58:04;0.53;;;0.53;;
10134;SDS011;5107;48.850;8.924;2023-01-30T13:03:36;0.80;;;0.70;;
10134;SDS011;5107;48.850;8.924;2023-01-30T13:06:16;0.87;;;0.83;;
10134;SDS011;5107;48.850;8.924;2023-01-30T13:09:03;0.80;;;0.80;;
10134;SDS011;5107;48.850;8.924;2023-01-30T13:11:47;0.77;;;0.77;;
10134;SDS011;5107;48.850;8.924;2023-01-30T13:14:28;1.73;;;0.83;;
10134;SDS011;5107;48.850;8.924;2023-01-30T13:17:15;1.17;;;0.97;;
10134;SDS011;5107;48.850;8.924;2023-01-30T13:20:00;1.07;;;0.97;;
10134;SDS011;5107;48.850;8.924;2023-01-30T13:22:36;1.37;;;1.27;;
10134;SDS011;5107;48.850;8.924;2023-01-30T13:25:13;1.33;;;1.20;;
10134;SDS011;5107;48.850;8.924;2023-01-30T13:27:51;1.33;;;1.23;;
10134;SDS011;5107;48.850;8.924;2023-01-30T13:30:23;1.97;;;1.63;;
10134;SDS011;5107;48.850;8.924;2023-01-30T13:32:53;2.03;;;1.70;;
10134;SDS011;5107;48.850;8.924;2023-01-30T13:35:26;5.33;;;1.87;;
10134;SDS011;5107;48.850;8.924;2023-01-30T13:37:57;2.40;;;2.03;;
10134;SDS011;5107;48.850;8.924;2023-01-30T13:40:27;2.67;;;2.30;;
10134;SDS011;5107;48.850;8.924;2023-01-30T13:43:03;3.03;;;2.60;;
10134;SDS011;5107;48.850;8.924;2023-01-30T13:45:40;2.47;;;2.20;;
10134;SDS011;5107;48.850;8.924;2023-01-30T13:48:15;2.83;;;2.53;;
10134;SDS011;5107;48.850;8.924;2023-01-30T13:51:03;3.40;;;2.60;;
10134;SDS011;5107;48.850;8.924;2023-01-30T13:53:47;3.63;;;2.60;;
10134;SDS011;5107;48.850;8.924;2023-01-30T13:56:21;3.67;;;3.00;;
10134;SDS011;5107;48.850;8.924;2023-01-30T13:58:57;3.83;;;3.00;;
10134;SDS011;5107;48.850;8.924;2023-01-30T14:04:44;2.70;;;2.27;;
10134;SDS011;5107;48.850;8.924;2023-01-30T14:07:15;3.60;;;2.50;;
10134;SDS011;5107;48.850;8.924;2023-01-30T14:09:50;2.93;;;2.33;;
10134;SDS011;5107;48.850;8.924;2023-01-30T14:12:33;2.73;;;2.03;;
10134;SDS011;5107;48.850;8.924;2023-01-30T14:15:08;3.30;;;2.37;;
10134;SDS011;5107;48.850;8.924;2023-01-30T14:17:57;5.10;;;3.00;;
10134;SDS011;5107;48.850;8.924;2023-01-30T14:20:27;3.23;;;2.23;;
10134;SDS011;5107;48.850;8.924;2023-01-30T14:22:57;2.97;;;2.20;;
10134;SDS011;5107;48.850;8.924;2023-01-30T14:37:44;4.27;;;2.87;;
10134;SDS011;5107;48.850;8.924;2023-01-30T14:40:34;4.83;;;3.63;;
10134;SDS011;5107;48.850;8.924;2023-01-30T14:49:22;5.60;;;4.20;;
10134;SDS011;5107;48.850;8.924;2023-01-30T14:51:56;5.27;;;3.80;;
10134;SDS011;5107;48.850;8.924;2023-01-30T14:54:25;5.83;;;4.10;;
10134;SDS011;5107;48.850;8.924;2023-01-30T14:56:59;7.47;;;4.60;;
10134;SDS011;5107;48.850;8.924;2023-01-30T14:59:31;6.07;;;4.03;;
10134;SDS011;5107;48.850;8.924;2023-01-30T15:02:07;8.83;;;4.80;;
10134;SDS011;5107;48.850;8.924;2023-01-30T15:04:48;7.17;;;4.50;;
10134;SDS011;5107;48.850;8.924;2023-01-30T15:07:25;7.93;;;4.17;;
10134;SDS011;5107;48.850;8.924;2023-01-30T15:09:59;6.90;;;4.87;;
10134;SDS011;5107;48.850;8.924;2023-01-30T15:12:38;7.40;;;4.40;;
10134;SDS011;5107;48.850;8.924;2023-01-30T15:15:40;8.27;;;4.77;;
10134;SDS011;5107;48.850;8.924;2023-01-30T15:18:20;7.20;;;4.67;;
10134;SDS011;5107;48.850;8.924;2023-01-30T15:24:05;8.63;;;5.20;;
10134;SDS011;5107;48.850;8.924;2023-01-30T15:27:00;6.67;;;4.23;;
10134;SDS011;5107;48.850;8.924;2023-01-30T15:29:51;5.67;;;3.97;;
10134;SDS011;5107;48.850;8.924;2023-01-30T15:32:30;10.80;;;4.87;;
10134;SDS011;5107;48.850;8.924;2023-01-30T15:34:59;6.27;;;4.17;;
10134;SDS011;5107;48.850;8.924;2023-01-30T15:37:32;8.63;;;4.87;;
10134;SDS011;5107;48.850;8.924;2023-01-30T15:43:03;6.77;;;5.13;;
10134;SDS011;5107;48.850;8.924;2023-01-30T15:45:47;6.30;;;3.93;;
10134;SDS011;5107;48.850;8.924;2023-01-30T15:48:35;6.93;;;3.87;;
10134;SDS011;5107;48.850;8.924;2023-01-30T15:51:15;8.43;;;4.37;;
10134;SDS011;5107;48.850;8.924;2023-01-30T15:53:47;6.83;;;4.67;;
10134;SDS011;5107;48.850;8.924;2023-01-30T15:56:17;6.00;;;4.57;;